sensor_id;sensor_type;location;lat;lon;timestamp;temperature;humidity
11922;DHT22;6021;51.182;3.160;2022-11-20T00:01:54;4.00;99.90
11922;DHT22;6021;51.182;3.160;2022-11-20T00:04:22;4.00;99.90
11922;DHT22;6021;51.182;3.160;2022-11-20T00:06:51;3.80;99.90
11922;DHT22;6021;51.182;3.160;2022-11-20T00:09:19;4.00;99.90
11922;DHT22;6021;51.182;3.160;2022-11-20T00:11:54;4.00;99.90
11922;DHT22;6021;51.182;3.160;2022-11-20T00:14:22;4.10;99.90
11922;DHT22;6021;51.182;3.160;2022-11-20T00:16:51;4.00;99.90
11922;DHT22;6021;51.182;3.160;2022-11-20T00:19:19;4.00;99.90
11922;DHT22;6021;51.182;3.160;2022-11-20T00:21:49;4.20;99.90
11922;DHT22;6021;51.182;3.160;2022-11-20T00:24:18;4.20;99.90
11922;DHT22;6021;51.182;3.160;2022-11-20T00:26:46;4.30;99.90
11922;DHT22;6021;51.182;3.160;2022-11-20T00:29:15;4.20;99.90
11922;DHT22;6021;51.182;3.160;2022-11-20T00:50:48;5.00;99.90
11922;DHT22;6021;51.182;3.160;2022-11-20T00:53:18;4.80;99.90
11922;DHT22;6021;51.182;3.160;2022-11-20T00:55:59;4.70;99.90
11922;DHT22;6021;51.182;3.160;2022-11-20T00:58:33;4.70;99.90
11922;DHT22;6021;51.182;3.160;2022-11-20T01:01:11;4.70;99.90
11922;DHT22;6021;51.182;3.160;2022-11-20T01:03:47;4.60;99.90
11922;DHT22;6021;51.182;3.160;2022-11-20T01:11:24;5.10;99.90
11922;DHT22;6021;51.182;3.160;2022-11-20T01:13:53;4.70;99.90
11922;DHT22;6021;51.182;3.160;2022-11-20T01:16:28;4.60;99.90
11922;DHT22;6021;51.182;3.160;2022-11-20T01:18:58;4.40;99.90
11922;DHT22;6021;51.182;3.160;2022-11-20T01:21:34;4.50;99.90
11922;DHT22;6021;51.182;3.160;2022-11-20T01:23:59;4.20;99.90
11922;DHT22;6021;51.182;3.160;2022-11-20T01:26:30;4.30;99.90
11922;DHT22;6021;51.182;3.160;2022-11-20T01:47:09;4.50;99.90
11922;DHT22;6021;51.182;3.160;2022-11-20T02:00:43;4.50;99.90
11922;DHT22;6021;51.182;3.160;2022-11-20T02:05:55;4.30;99.90
11922;DHT22;6021;51.182;3.160;2022-11-20T02:13:28;4.50;99.90
11922;DHT22;6021;51.182;3.160;2022-11-20T02:16:21;4.40;99.90
11922;DHT22;6021;51.182;3.160;2022-11-20T02:18:51;4.50;99.90
11922;DHT22;6021;51.182;3.160;2022-11-20T02:21:27;4.60;99.90
11922;DHT22;6021;51.182;3.160;2022-11-20T02:47:19;4.70;99.90
11922;DHT22;6021;51.182;3.160;2022-11-20T02:49:48;4.60;99.90
11922;DHT22;6021;51.182;3.160;2022-11-20T02:52:16;4.40;99.90
11922;DHT22;6021;51.182;3.160;2022-11-20T02:54:44;4.40;99.90
11922;DHT22;6021;51.182;3.160;2022-11-20T02:57:13;4.30;99.90
11922;DHT22;6021;51.182;3.160;2022-11-20T02:59:41;4.20;99.90
11922;DHT22;6021;51.182;3.160;2022-11-20T03:02:10;4.50;99.90
11922;DHT22;6021;51.182;3.160;2022-11-20T03:09:43;4.30;99.90
11922;DHT22;6021;51.182;3.160;2022-11-20T03:14:50;4.50;99.90
11922;DHT22;6021;51.182;3.160;2022-11-20T03:17:19;4.40;99.90
11922;DHT22;6021;51.182;3.160;2022-11-20T03:19:48;4.50;99.90
11922;DHT22;6021;51.182;3.160;2022-11-20T03:24:58;4.50;99.90
11922;DHT22;6021;51.182;3.160;2022-11-20T03:30:03;4.90;99.90
11922;DHT22;6021;51.182;3.160;2022-11-20T03:32:32;4.70;99.90
11922;DHT22;6021;51.182;3.160;2022-11-20T03:35:00;4.50;99.90
11922;DHT22;6021;51.182;3.160;2022-11-20T03:37:30;4.30;99.90
11922;DHT22;6021;51.182;3.160;2022-11-20T03:42:34;4.40;99.90
11922;DHT22;6021;51.182;3.160;2022-11-20T03:45:17;4.70;99.90
11922;DHT22;6021;51.182;3.160;2022-11-20T03:50:23;4.60;99.90
11922;DHT22;6021;51.182;3.160;2022-11-20T03:58:03;4.40;99.90
11922;DHT22;6021;51.182;3.160;2022-11-20T04:00:32;4.70;99.90
11922;DHT22;6021;51.182;3.160;2022-11-20T04:03:01;4.50;99.90
11922;DHT22;6021;51.182;3.160;2022-11-20T04:08:12;4.70;99.90
11922;DHT22;6021;51.182;3.160;2022-11-20T04:13:16;4.30;99.90
11922;DHT22;6021;51.182;3.160;2022-11-20T04:15:47;4.60;99.90
11922;DHT22;6021;51.182;3.160;2022-11-20T04:18:17;4.60;99.90
11922;DHT22;6021;51.182;3.160;2022-11-20T04:23:16;4.70;99.90
11922;DHT22;6021;51.182;3.160;2022-11-20T04:25:46;4.60;99.90
11922;DHT22;6021;51.182;3.160;2022-11-20T04:30:50;4.70;99.90
11922;DHT22;6021;51.182;3.160;2022-11-20T04:33:20;4.70;99.90
11922;DHT22;6021;51.182;3.160;2022-11-20T04:35:48;4.80;99.90
11922;DHT22;6021;51.182;3.160;2022-11-20T04:40:57;4.70;99.90
11922;DHT22;6021;51.182;3.160;2022-11-20T04:43:27;4.70;99.90
11922;DHT22;6021;51.182;3.160;2022-11-20T04:45:57;4.80;99.90
11922;DHT22;6021;51.182;3.160;2022-11-20T04:48:27;4.50;99.90
11922;DHT22;6021;51.182;3.160;2022-11-20T04:50:56;4.70;99.90
11922;DHT22;6021;51.182;3.160;2022-11-20T04:56:00;4.50;99.90
11922;DHT22;6021;51.182;3.160;2022-11-20T04:58:29;4.70;99.90
11922;DHT22;6021;51.182;3.160;2022-11-20T05:01:05;4.70;99.90
11922;DHT22;6021;51.182;3.160;2022-11-20T05:03:34;4.60;99.90
11922;DHT22;6021;51.182;3.160;2022-11-20T05:06:04;4.70;99.90
11922;DHT22;6021;51.182;3.160;2022-11-20T05:08:33;4.70;99.90
11922;DHT22;6021;51.182;3.160;2022-11-20T05:11:07;4.90;99.90
11922;DHT22;6021;51.182;3.160;2022-11-20T05:13:34;5.30;99.90
11922;DHT22;6021;51.182;3.160;2022-11-20T05:16:11;5.10;99.90
11922;DHT22;6021;51.182;3.160;2022-11-20T05:18:40;5.20;99.90
11922;DHT22;6021;51.182;3.160;2022-11-20T05:21:10;5.40;99.90
11922;DHT22;6021;51.182;3.160;2022-11-20T05:23:39;5.50;99.90
11922;DHT22;6021;51.182;3.160;2022-11-20T05:26:11;5.20;99.90
11922;DHT22;6021;51.182;3.160;2022-11-20T05:28:38;5.50;99.90
11922;DHT22;6021;51.182;3.160;2022-11-20T05:31:08;5.50;99.90
11922;DHT22;6021;51.182;3.160;2022-11-20T05:33:39;5.50;99.90
11922;DHT22;6021;51.182;3.160;2022-11-20T05:36:08;5.50;99.90
11922;DHT22;6021;51.182;3.160;2022-11-20T05:38:37;5.50;99.90
11922;DHT22;6021;51.182;3.160;2022-11-20T05:41:10;5.40;99.90
11922;DHT22;6021;51.182;3.160;2022-11-20T05:43:41;5.40;99.90
11922;DHT22;6021;51.182;3.160;2022-11-20T05:46:11;5.30;99.90
11922;DHT22;6021;51.182;3.160;2022-11-20T05:48:41;5.30;99.90
11922;DHT22;6021;51.182;3.160;2022-11-20T05:51:12;5.20;99.90
11922;DHT22;6021;51.182;3.160;2022-11-20T05:53:41;5.50;99.90
11922;DHT22;6021;51.182;3.160;2022-11-20T05:56:20;5.40;99.90
11922;DHT22;6021;51.182;3.160;2022-11-20T05:58:49;5.40;99.90
11922;DHT22;6021;51.182;3.160;2022-11-20T06:01:23;5.50;99.90
11922;DHT22;6021;51.182;3.160;2022-11-20T06:06:23;5.70;99.90
11922;DHT22;6021;51.182;3.160;2022-11-20T06:08:53;5.70;99.90
11922;DHT22;6021;51.182;3.160;2022-11-20T06:11:22;5.70;99.90
11922;DHT22;6021;51.182;3.160;2022-11-20T06:13:50;5.50;99.90
11922;DHT22;6021;51.182;3.160;2022-11-20T06:16:19;5.40;99.90
11922;DHT22;6021;51.182;3.160;2022-11-20T06:18:49;5.40;99.90
11922;DHT22;6021;51.182;3.160;2022-11-20T06:21:19;5.50;99.90
11922;DHT22;6021;51.182;3.160;2022-11-20T06:23:50;5.50;99.90
11922;DHT22;6021;51.182;3.160;2022-11-20T06:26:22;5.70;99.90
11922;DHT22;6021;51.182;3.160;2022-11-20T06:28:51;5.50;99.90
11922;DHT22;6021;51.182;3.160;2022-11-20T06:31:23;5.40;99.90
11922;DHT22;6021;51.182;3.160;2022-11-20T06:33:53;5.40;99.90
11922;DHT22;6021;51.182;3.160;2022-11-20T06:36:22;5.40;99.90
11922;DHT22;6021;51.182;3.160;2022-11-20T06:38:51;5.70;99.90
11922;DHT22;6021;51.182;3.160;2022-11-20T06:41:21;5.70;99.90
11922;DHT22;6021;51.182;3.160;2022-11-20T06:43:50;5.70;99.90
11922;DHT22;6021;51.182;3.160;2022-11-20T06:46:19;5.70;99.90
11922;DHT22;6021;51.182;3.160;2022-11-20T06:48:48;6.00;99.90
11922;DHT22;6021;51.182;3.160;2022-11-20T06:51:17;5.90;99.90
11922;DHT22;6021;51.182;3.160;2022-11-20T06:53:45;6.10;99.90
11922;DHT22;6021;51.182;3.160;2022-11-20T06:56:13;5.90;99.90
11922;DHT22;6021;51.182;3.160;2022-11-20T06:58:42;5.90;99.90
11922;DHT22;6021;51.182;3.160;2022-11-20T07:01:12;5.80;99.90
11922;DHT22;6021;51.182;3.160;2022-11-20T07:03:41;6.20;99.90
11922;DHT22;6021;51.182;3.160;2022-11-20T07:06:10;6.00;99.90
11922;DHT22;6021;51.182;3.160;2022-11-20T07:13:44;6.00;99.90
11922;DHT22;6021;51.182;3.160;2022-11-20T07:16:13;6.00;99.90
11922;DHT22;6021;51.182;3.160;2022-11-20T07:18:41;6.30;99.90
11922;DHT22;6021;51.182;3.160;2022-11-20T07:21:10;6.50;99.90
11922;DHT22;6021;51.182;3.160;2022-11-20T07:23:40;6.20;99.90
11922;DHT22;6021;51.182;3.160;2022-11-20T07:26:10;6.00;99.90
11922;DHT22;6021;51.182;3.160;2022-11-20T07:28:39;5.90;99.90
11922;DHT22;6021;51.182;3.160;2022-11-20T07:31:07;6.00;99.90
11922;DHT22;6021;51.182;3.160;2022-11-20T07:33:35;5.80;99.90
11922;DHT22;6021;51.182;3.160;2022-11-20T07:36:04;6.10;99.90
11922;DHT22;6021;51.182;3.160;2022-11-20T07:38:32;5.70;99.90
11922;DHT22;6021;51.182;3.160;2022-11-20T07:41:00;5.70;99.90
11922;DHT22;6021;51.182;3.160;2022-11-20T07:43:29;5.70;99.90
11922;DHT22;6021;51.182;3.160;2022-11-20T07:45:59;5.70;99.90
11922;DHT22;6021;51.182;3.160;2022-11-20T07:48:27;5.80;99.90
11922;DHT22;6021;51.182;3.160;2022-11-20T07:50:56;6.10;99.90
11922;DHT22;6021;51.182;3.160;2022-11-20T07:53:25;5.70;99.90
11922;DHT22;6021;51.182;3.160;2022-11-20T07:55:53;6.00;99.90
11922;DHT22;6021;51.182;3.160;2022-11-20T07:58:22;6.00;99.90
11922;DHT22;6021;51.182;3.160;2022-11-20T08:00:50;6.00;99.90
11922;DHT22;6021;51.182;3.160;2022-11-20T08:03:18;6.00;99.90
11922;DHT22;6021;51.182;3.160;2022-11-20T08:05:47;5.90;99.90
11922;DHT22;6021;51.182;3.160;2022-11-20T08:08:15;5.80;99.90
11922;DHT22;6021;51.182;3.160;2022-11-20T08:10:43;6.10;99.90
11922;DHT22;6021;51.182;3.160;2022-11-20T08:13:12;5.90;99.90
11922;DHT22;6021;51.182;3.160;2022-11-20T08:15:58;5.90;99.90
11922;DHT22;6021;51.182;3.160;2022-11-20T08:18:27;6.20;99.90
11922;DHT22;6021;51.182;3.160;2022-11-20T08:20:55;6.30;99.90
11922;DHT22;6021;51.182;3.160;2022-11-20T08:23:24;6.20;99.90
11922;DHT22;6021;51.182;3.160;2022-11-20T08:25:52;6.30;99.90
11922;DHT22;6021;51.182;3.160;2022-11-20T08:28:20;6.20;99.90
11922;DHT22;6021;51.182;3.160;2022-11-20T08:30:49;6.20;99.90
11922;DHT22;6021;51.182;3.160;2022-11-20T08:33:18;6.20;99.90
11922;DHT22;6021;51.182;3.160;2022-11-20T08:35:46;6.30;99.90
11922;DHT22;6021;51.182;3.160;2022-11-20T08:40:51;6.20;99.90
11922;DHT22;6021;51.182;3.160;2022-11-20T08:43:37;6.30;99.90
11922;DHT22;6021;51.182;3.160;2022-11-20T08:46:05;6.40;99.90
11922;DHT22;6021;51.182;3.160;2022-11-20T08:48:33;6.30;99.90
11922;DHT22;6021;51.182;3.160;2022-11-20T08:51:02;6.20;99.90
11922;DHT22;6021;51.182;3.160;2022-11-20T08:53:30;6.30;99.90
11922;DHT22;6021;51.182;3.160;2022-11-20T08:55:59;6.70;99.90
11922;DHT22;6021;51.182;3.160;2022-11-20T08:58:29;6.30;99.90
11922;DHT22;6021;51.182;3.160;2022-11-20T09:00:57;6.50;99.90
11922;DHT22;6021;51.182;3.160;2022-11-20T09:03:26;6.60;99.90
11922;DHT22;6021;51.182;3.160;2022-11-20T09:05:59;6.40;99.90
11922;DHT22;6021;51.182;3.160;2022-11-20T09:08:28;6.50;99.90
11922;DHT22;6021;51.182;3.160;2022-11-20T09:10:58;6.80;99.90
11922;DHT22;6021;51.182;3.160;2022-11-20T09:13:28;6.70;99.90
11922;DHT22;6021;51.182;3.160;2022-11-20T09:15:59;7.10;99.90
11922;DHT22;6021;51.182;3.160;2022-11-20T09:18:32;6.50;99.90
11922;DHT22;6021;51.182;3.160;2022-11-20T09:21:04;6.80;99.90
11922;DHT22;6021;51.182;3.160;2022-11-20T09:26:11;6.80;99.90
11922;DHT22;6021;51.182;3.160;2022-11-20T09:28:42;6.80;99.90
11922;DHT22;6021;51.182;3.160;2022-11-20T09:33:52;7.30;99.90
11922;DHT22;6021;51.182;3.160;2022-11-20T09:36:20;7.10;99.90
11922;DHT22;6021;51.182;3.160;2022-11-20T09:41:46;6.80;99.90
11922;DHT22;6021;51.182;3.160;2022-11-20T09:47:49;7.20;99.90
11922;DHT22;6021;51.182;3.160;2022-11-20T09:55:48;7.10;99.90
11922;DHT22;6021;51.182;3.160;2022-11-20T09:58:29;7.10;99.90
11922;DHT22;6021;51.182;3.160;2022-11-20T10:01:08;7.50;99.90
11922;DHT22;6021;51.182;3.160;2022-11-20T10:06:17;7.60;99.90
11922;DHT22;6021;51.182;3.160;2022-11-20T10:16:58;7.70;99.90
11922;DHT22;6021;51.182;3.160;2022-11-20T10:19:52;8.20;99.90
11922;DHT22;6021;51.182;3.160;2022-11-20T10:22:35;8.00;99.90
11922;DHT22;6021;51.182;3.160;2022-11-20T10:30:25;8.10;99.90
11922;DHT22;6021;51.182;3.160;2022-11-20T10:33:00;8.50;99.90
11922;DHT22;6021;51.182;3.160;2022-11-20T10:38:12;8.50;99.90
11922;DHT22;6021;51.182;3.160;2022-11-20T10:40:42;8.40;99.90
11922;DHT22;6021;51.182;3.160;2022-11-20T10:46:20;8.70;99.90
11922;DHT22;6021;51.182;3.160;2022-11-20T10:54:21;8.60;99.90
11922;DHT22;6021;51.182;3.160;2022-11-20T10:56:54;8.90;99.90
11922;DHT22;6021;51.182;3.160;2022-11-20T11:02:31;8.90;99.90
11922;DHT22;6021;51.182;3.160;2022-11-20T11:04:51;8.60;99.90
11922;DHT22;6021;51.182;3.160;2022-11-20T11:07:30;8.80;99.90
11922;DHT22;6021;51.182;3.160;2022-11-20T11:10:00;8.70;99.90
11922;DHT22;6021;51.182;3.160;2022-11-20T11:12:29;8.90;99.90
11922;DHT22;6021;51.182;3.160;2022-11-20T11:14:58;8.60;99.90
11922;DHT22;6021;51.182;3.160;2022-11-20T11:17:31;8.80;99.90
11922;DHT22;6021;51.182;3.160;2022-11-20T11:22:55;8.50;99.90
11922;DHT22;6021;51.182;3.160;2022-11-20T11:25:26;8.60;99.90
11922;DHT22;6021;51.182;3.160;2022-11-20T11:27:57;8.60;99.90
11922;DHT22;6021;51.182;3.160;2022-11-20T11:30:28;8.60;99.90
11922;DHT22;6021;51.182;3.160;2022-11-20T11:33:05;8.30;99.90
11922;DHT22;6021;51.182;3.160;2022-11-20T11:35:38;8.50;99.90
11922;DHT22;6021;51.182;3.160;2022-11-20T11:38:12;8.30;99.90
11922;DHT22;6021;51.182;3.160;2022-11-20T11:40:36;8.30;99.90
11922;DHT22;6021;51.182;3.160;2022-11-20T11:43:07;8.60;99.90
11922;DHT22;6021;51.182;3.160;2022-11-20T11:45:38;8.30;99.90
11922;DHT22;6021;51.182;3.160;2022-11-20T11:48:09;8.50;99.90
11922;DHT22;6021;51.182;3.160;2022-11-20T11:50:37;8.20;99.90
11922;DHT22;6021;51.182;3.160;2022-11-20T11:53:15;8.20;99.90
11922;DHT22;6021;51.182;3.160;2022-11-20T11:55:54;8.20;99.90
11922;DHT22;6021;51.182;3.160;2022-11-20T12:09:24;8.20;99.90
11922;DHT22;6021;51.182;3.160;2022-11-20T12:12:10;8.00;99.90
11922;DHT22;6021;51.182;3.160;2022-11-20T12:14:45;8.20;99.90
11922;DHT22;6021;51.182;3.160;2022-11-20T12:17:14;8.10;99.90
11922;DHT22;6021;51.182;3.160;2022-11-20T12:19:43;8.10;99.90
11922;DHT22;6021;51.182;3.160;2022-11-20T12:22:36;8.10;99.90
11922;DHT22;6021;51.182;3.160;2022-11-20T12:25:11;7.90;99.90
11922;DHT22;6021;51.182;3.160;2022-11-20T12:30:33;8.20;99.90
11922;DHT22;6021;51.182;3.160;2022-11-20T12:35:56;8.20;99.90
11922;DHT22;6021;51.182;3.160;2022-11-20T12:38:48;8.20;99.90
11922;DHT22;6021;51.182;3.160;2022-11-20T12:41:24;8.20;99.90
11922;DHT22;6021;51.182;3.160;2022-11-20T12:52:45;8.20;99.90
11922;DHT22;6021;51.182;3.160;2022-11-20T13:00:54;8.20;99.90
11922;DHT22;6021;51.182;3.160;2022-11-20T13:03:44;8.20;99.90
11922;DHT22;6021;51.182;3.160;2022-11-20T13:06:17;8.40;99.90
11922;DHT22;6021;51.182;3.160;2022-11-20T13:08:54;8.20;99.90
11922;DHT22;6021;51.182;3.160;2022-11-20T13:17:34;8.10;99.90
11922;DHT22;6021;51.182;3.160;2022-11-20T13:19:57;8.40;99.90
11922;DHT22;6021;51.182;3.160;2022-11-20T13:22:41;8.40;99.90
11922;DHT22;6021;51.182;3.160;2022-11-20T13:24:59;8.50;99.90
11922;DHT22;6021;51.182;3.160;2022-11-20T13:27:27;8.50;99.90
11922;DHT22;6021;51.182;3.160;2022-11-20T13:30:11;8.50;99.90
11922;DHT22;6021;51.182;3.160;2022-11-20T13:32:32;8.80;99.90
11922;DHT22;6021;51.182;3.160;2022-11-20T13:35:03;8.80;99.90
11922;DHT22;6021;51.182;3.160;2022-11-20T13:37:38;8.80;99.90
11922;DHT22;6021;51.182;3.160;2022-11-20T13:42:55;8.70;99.90
11922;DHT22;6021;51.182;3.160;2022-11-20T13:45:25;8.80;99.90
11922;DHT22;6021;51.182;3.160;2022-11-20T13:47:55;8.90;99.90
11922;DHT22;6021;51.182;3.160;2022-11-20T13:50:43;8.80;99.90
11922;DHT22;6021;51.182;3.160;2022-11-20T13:53:33;8.70;99.90
11922;DHT22;6021;51.182;3.160;2022-11-20T13:56:07;8.80;99.90
11922;DHT22;6021;51.182;3.160;2022-11-20T14:01:26;8.80;99.90
11922;DHT22;6021;51.182;3.160;2022-11-20T14:03:55;9.00;99.90
11922;DHT22;6021;51.182;3.160;2022-11-20T14:06:29;9.00;99.90
11922;DHT22;6021;51.182;3.160;2022-11-20T14:08:59;9.10;99.90
11922;DHT22;6021;51.182;3.160;2022-11-20T14:11:30;9.20;99.90
11922;DHT22;6021;51.182;3.160;2022-11-20T14:14:00;9.10;99.90
11922;DHT22;6021;51.182;3.160;2022-11-20T14:16:32;9.20;99.90
11922;DHT22;6021;51.182;3.160;2022-11-20T14:19:26;9.00;99.90
11922;DHT22;6021;51.182;3.160;2022-11-20T14:24:42;9.20;99.90
11922;DHT22;6021;51.182;3.160;2022-11-20T14:27:16;9.10;99.90
11922;DHT22;6021;51.182;3.160;2022-11-20T14:29:47;9.20;99.90
11922;DHT22;6021;51.182;3.160;2022-11-20T14:32:19;8.90;99.90
11922;DHT22;6021;51.182;3.160;2022-11-20T14:34:49;9.00;99.90
11922;DHT22;6021;51.182;3.160;2022-11-20T14:37:21;9.00;99.90
11922;DHT22;6021;51.182;3.160;2022-11-20T14:39:52;9.00;99.90
11922;DHT22;6021;51.182;3.160;2022-11-20T14:42:25;8.90;99.90
11922;DHT22;6021;51.182;3.160;2022-11-20T14:45:01;8.90;99.90
11922;DHT22;6021;51.182;3.160;2022-11-20T14:47:31;9.20;99.90
11922;DHT22;6021;51.182;3.160;2022-11-20T14:50:19;9.20;99.90
11922;DHT22;6021;51.182;3.160;2022-11-20T14:52:33;8.80;99.90
11922;DHT22;6021;51.182;3.160;2022-11-20T14:55:01;8.80;99.90
11922;DHT22;6021;51.182;3.160;2022-11-20T14:57:32;8.80;99.90
11922;DHT22;6021;51.182;3.160;2022-11-20T15:02:45;8.80;99.90
11922;DHT22;6021;51.182;3.160;2022-11-20T15:05:15;8.90;99.90
11922;DHT22;6021;51.182;3.160;2022-11-20T15:07:46;8.70;99.90
11922;DHT22;6021;51.182;3.160;2022-11-20T15:10:51;8.90;99.90
11922;DHT22;6021;51.182;3.160;2022-11-20T15:13:31;8.90;99.90
11922;DHT22;6021;51.182;3.160;2022-11-20T15:16:26;8.90;99.90
11922;DHT22;6021;51.182;3.160;2022-11-20T15:18:39;8.90;99.90
11922;DHT22;6021;51.182;3.160;2022-11-20T15:21:13;9.00;99.90
11922;DHT22;6021;51.182;3.160;2022-11-20T15:23:42;8.90;99.90
11922;DHT22;6021;51.182;3.160;2022-11-20T15:26:18;8.80;99.90
11922;DHT22;6021;51.182;3.160;2022-11-20T15:28:46;8.90;99.90
11922;DHT22;6021;51.182;3.160;2022-11-20T15:31:18;9.10;99.90
11922;DHT22;6021;51.182;3.160;2022-11-20T15:33:47;8.90;99.90
11922;DHT22;6021;51.182;3.160;2022-11-20T15:36:15;9.30;99.90
11922;DHT22;6021;51.182;3.160;2022-11-20T15:38:44;9.10;99.90
11922;DHT22;6021;51.182;3.160;2022-11-20T15:41:12;9.20;99.90
11922;DHT22;6021;51.182;3.160;2022-11-20T15:43:40;9.10;99.90
11922;DHT22;6021;51.182;3.160;2022-11-20T15:46:16;9.10;99.90
11922;DHT22;6021;51.182;3.160;2022-11-20T15:48:51;9.10;99.90
11922;DHT22;6021;51.182;3.160;2022-11-20T15:51:37;9.00;99.90
11922;DHT22;6021;51.182;3.160;2022-11-20T15:54:11;9.00;99.90
11922;DHT22;6021;51.182;3.160;2022-11-20T15:56:39;8.90;99.90
11922;DHT22;6021;51.182;3.160;2022-11-20T15:59:08;8.80;99.90
11922;DHT22;6021;51.182;3.160;2022-11-20T16:01:36;8.90;99.90
11922;DHT22;6021;51.182;3.160;2022-11-20T16:04:10;8.90;99.90
11922;DHT22;6021;51.182;3.160;2022-11-20T16:06:35;9.20;99.90
11922;DHT22;6021;51.182;3.160;2022-11-20T16:09:04;9.10;99.90
11922;DHT22;6021;51.182;3.160;2022-11-20T16:11:32;9.20;99.90
11922;DHT22;6021;51.182;3.160;2022-11-20T16:14:03;9.10;99.90
11922;DHT22;6021;51.182;3.160;2022-11-20T16:16:49;9.10;99.90
11922;DHT22;6021;51.182;3.160;2022-11-20T16:19:18;9.10;99.90
11922;DHT22;6021;51.182;3.160;2022-11-20T16:21:46;9.00;99.90
11922;DHT22;6021;51.182;3.160;2022-11-20T16:24:16;9.10;99.90
11922;DHT22;6021;51.182;3.160;2022-11-20T16:26:44;9.20;99.90
11922;DHT22;6021;51.182;3.160;2022-11-20T16:29:14;9.30;99.90
11922;DHT22;6021;51.182;3.160;2022-11-20T16:31:42;9.30;99.90
11922;DHT22;6021;51.182;3.160;2022-11-20T16:34:11;9.00;99.90
11922;DHT22;6021;51.182;3.160;2022-11-20T16:36:40;9.00;99.90
11922;DHT22;6021;51.182;3.160;2022-11-20T16:39:09;8.80;99.90
11922;DHT22;6021;51.182;3.160;2022-11-20T16:41:38;8.80;99.90
11922;DHT22;6021;51.182;3.160;2022-11-20T16:44:08;8.70;99.90
11922;DHT22;6021;51.182;3.160;2022-11-20T16:46:37;8.70;99.90
11922;DHT22;6021;51.182;3.160;2022-11-20T16:49:11;8.70;99.90
11922;DHT22;6021;51.182;3.160;2022-11-20T16:51:40;8.70;99.90
11922;DHT22;6021;51.182;3.160;2022-11-20T16:54:09;8.80;99.90
11922;DHT22;6021;51.182;3.160;2022-11-20T16:56:38;8.80;99.90
11922;DHT22;6021;51.182;3.160;2022-11-20T16:59:07;8.70;99.90
11922;DHT22;6021;51.182;3.160;2022-11-20T17:01:54;8.80;99.90
11922;DHT22;6021;51.182;3.160;2022-11-20T17:04:23;8.70;99.90
11922;DHT22;6021;51.182;3.160;2022-11-20T17:06:51;8.90;99.90
11922;DHT22;6021;51.182;3.160;2022-11-20T17:11:55;8.70;99.90
11922;DHT22;6021;51.182;3.160;2022-11-20T17:33:35;8.40;99.90
11922;DHT22;6021;51.182;3.160;2022-11-20T17:36:05;8.60;99.90
11922;DHT22;6021;51.182;3.160;2022-11-20T17:38:35;8.60;99.90
11922;DHT22;6021;51.182;3.160;2022-11-20T17:41:06;8.50;99.90
11922;DHT22;6021;51.182;3.160;2022-11-20T17:43:38;8.80;99.90
11922;DHT22;6021;51.182;3.160;2022-11-20T17:46:10;8.50;99.90
11922;DHT22;6021;51.182;3.160;2022-11-20T17:48:40;8.60;99.90
11922;DHT22;6021;51.182;3.160;2022-11-20T17:51:22;8.20;99.90
11922;DHT22;6021;51.182;3.160;2022-11-20T17:53:43;8.40;99.90
11922;DHT22;6021;51.182;3.160;2022-11-20T17:56:12;8.40;99.90
11922;DHT22;6021;51.182;3.160;2022-11-20T17:58:58;8.30;99.90
11922;DHT22;6021;51.182;3.160;2022-11-20T18:01:27;8.30;99.90
11922;DHT22;6021;51.182;3.160;2022-11-20T18:03:58;8.60;99.90
11922;DHT22;6021;51.182;3.160;2022-11-20T18:06:27;8.40;99.90
11922;DHT22;6021;51.182;3.160;2022-11-20T18:11:41;8.70;99.90
11922;DHT22;6021;51.182;3.160;2022-11-20T18:14:15;8.50;99.90
11922;DHT22;6021;51.182;3.160;2022-11-20T18:17:05;8.50;99.90
11922;DHT22;6021;51.182;3.160;2022-11-20T18:19:37;8.60;99.90
11922;DHT22;6021;51.182;3.160;2022-11-20T18:22:05;8.60;99.90
11922;DHT22;6021;51.182;3.160;2022-11-20T18:24:36;8.50;99.90
11922;DHT22;6021;51.182;3.160;2022-11-20T18:27:07;8.50;99.90
11922;DHT22;6021;51.182;3.160;2022-11-20T18:29:36;8.60;99.90
11922;DHT22;6021;51.182;3.160;2022-11-20T18:32:04;8.50;99.90
11922;DHT22;6021;51.182;3.160;2022-11-20T18:34:32;8.50;99.90
11922;DHT22;6021;51.182;3.160;2022-11-20T18:37:01;8.50;99.90
11922;DHT22;6021;51.182;3.160;2022-11-20T18:39:29;8.30;99.90
11922;DHT22;6021;51.182;3.160;2022-11-20T18:41:58;8.60;99.90
11922;DHT22;6021;51.182;3.160;2022-11-20T18:44:44;8.70;99.90
11922;DHT22;6021;51.182;3.160;2022-11-20T18:47:21;8.60;99.90
11922;DHT22;6021;51.182;3.160;2022-11-20T18:49:51;8.30;99.90
11922;DHT22;6021;51.182;3.160;2022-11-20T18:52:22;8.30;99.90
11922;DHT22;6021;51.182;3.160;2022-11-20T18:54:51;8.30;99.90
11922;DHT22;6021;51.182;3.160;2022-11-20T18:57:22;8.30;99.90
11922;DHT22;6021;51.182;3.160;2022-11-20T18:59:51;8.20;99.90
11922;DHT22;6021;51.182;3.160;2022-11-20T19:02:21;8.30;99.90
11922;DHT22;6021;51.182;3.160;2022-11-20T19:04:49;8.30;99.90
11922;DHT22;6021;51.182;3.160;2022-11-20T19:07:19;8.20;99.90
11922;DHT22;6021;51.182;3.160;2022-11-20T19:09:48;8.30;99.90
11922;DHT22;6021;51.182;3.160;2022-11-20T19:12:18;8.40;99.90
11922;DHT22;6021;51.182;3.160;2022-11-20T19:14:47;8.20;99.90
11922;DHT22;6021;51.182;3.160;2022-11-20T19:17:16;8.10;99.90
11922;DHT22;6021;51.182;3.160;2022-11-20T19:19:44;8.40;99.90
11922;DHT22;6021;51.182;3.160;2022-11-20T19:22:13;8.20;99.90
11922;DHT22;6021;51.182;3.160;2022-11-20T19:24:42;8.40;99.90
11922;DHT22;6021;51.182;3.160;2022-11-20T19:27:10;8.10;99.90
11922;DHT22;6021;51.182;3.160;2022-11-20T19:29:39;8.10;99.90
11922;DHT22;6021;51.182;3.160;2022-11-20T19:32:07;8.20;99.90
11922;DHT22;6021;51.182;3.160;2022-11-20T19:34:36;8.30;99.90
11922;DHT22;6021;51.182;3.160;2022-11-20T19:37:04;8.40;99.90
11922;DHT22;6021;51.182;3.160;2022-11-20T19:39:32;8.30;99.90
11922;DHT22;6021;51.182;3.160;2022-11-20T19:42:02;8.20;99.90
11922;DHT22;6021;51.182;3.160;2022-11-20T19:44:30;8.30;99.90
11922;DHT22;6021;51.182;3.160;2022-11-20T19:46:59;8.30;99.90
11922;DHT22;6021;51.182;3.160;2022-11-20T19:49:30;8.20;99.90
11922;DHT22;6021;51.182;3.160;2022-11-20T19:51:58;8.20;99.90
11922;DHT22;6021;51.182;3.160;2022-11-20T19:54:27;8.30;99.90
11922;DHT22;6021;51.182;3.160;2022-11-20T19:56:55;8.30;99.90
11922;DHT22;6021;51.182;3.160;2022-11-20T19:59:24;8.30;99.90
11922;DHT22;6021;51.182;3.160;2022-11-20T20:01:52;8.30;99.90
11922;DHT22;6021;51.182;3.160;2022-11-20T20:04:20;8.40;99.90
11922;DHT22;6021;51.182;3.160;2022-11-20T20:06:49;8.70;99.90
11922;DHT22;6021;51.182;3.160;2022-11-20T20:09:17;8.30;99.90
11922;DHT22;6021;51.182;3.160;2022-11-20T20:11:46;8.40;99.90
11922;DHT22;6021;51.182;3.160;2022-11-20T20:14:15;8.50;99.90
11922;DHT22;6021;51.182;3.160;2022-11-20T20:16:44;8.60;99.90
11922;DHT22;6021;51.182;3.160;2022-11-20T20:19:14;8.60;99.90
11922;DHT22;6021;51.182;3.160;2022-11-20T20:21:42;8.60;99.90
11922;DHT22;6021;51.182;3.160;2022-11-20T20:24:11;8.60;99.90
11922;DHT22;6021;51.182;3.160;2022-11-20T20:26:39;8.60;99.90
11922;DHT22;6021;51.182;3.160;2022-11-20T20:29:08;8.60;99.90
11922;DHT22;6021;51.182;3.160;2022-11-20T20:31:37;8.90;99.90
11922;DHT22;6021;51.182;3.160;2022-11-20T20:34:07;9.20;99.90
11922;DHT22;6021;51.182;3.160;2022-11-20T20:36:35;8.90;99.90
11922;DHT22;6021;51.182;3.160;2022-11-20T20:39:03;8.70;99.90
11922;DHT22;6021;51.182;3.160;2022-11-20T20:41:32;8.80;99.90
11922;DHT22;6021;51.182;3.160;2022-11-20T20:44:00;8.90;99.90